createdAt,value
2019-02-24T00:00:32.661Z,336
2019-02-24T00:01:39.857Z,335
2019-02-24T00:02:47.046Z,335
2019-02-24T00:03:55.652Z,335
2019-02-24T00:05:02.846Z,335
2019-02-24T00:06:09.762Z,336
2019-02-24T00:07:16.947Z,335
2019-02-24T00:08:23.895Z,336
2019-02-24T00:09:31.094Z,336
2019-02-24T00:10:38.285Z,336
2019-02-24T00:11:45.471Z,336
2019-02-24T00:12:52.665Z,335
2019-02-24T00:13:59.857Z,335
2019-02-24T00:15:06.779Z,335
2019-02-24T00:16:13.988Z,335
2019-02-24T00:17:21.213Z,336
2019-02-24T00:18:28.402Z,335
2019-02-24T00:19:35.590Z,335
2019-02-24T00:20:42.786Z,335
2019-02-24T00:21:49.979Z,336
2019-02-24T00:22:57.170Z,335
2019-02-24T00:24:04.356Z,336
2019-02-24T00:25:11.548Z,335
2019-02-24T00:26:18.741Z,335
2019-02-24T00:27:25.935Z,335
2019-02-24T00:28:32.858Z,335
2019-02-24T00:29:40.049Z,335
2019-02-24T00:30:47.243Z,335
2019-02-24T00:31:54.432Z,335
2019-02-24T00:33:01.625Z,334
2019-02-24T00:34:08.814Z,335
2019-02-24T00:35:15.745Z,335
2019-02-24T00:36:22.937Z,335
2019-02-24T00:37:30.164Z,335
2019-02-24T00:38:37.352Z,335
2019-02-24T00:39:44.761Z,335
2019-02-24T00:40:51.995Z,335
2019-02-24T00:41:59.188Z,336
2019-02-24T00:43:06.379Z,335
2019-02-24T00:44:13.298Z,336
2019-02-24T00:45:20.488Z,336
2019-02-24T00:46:27.684Z,335
2019-02-24T00:47:34.871Z,335
2019-02-24T00:48:42.058Z,335
2019-02-24T00:49:49.245Z,335
2019-02-24T00:50:56.433Z,335
2019-02-24T00:52:03.633Z,335
2019-02-24T00:53:10.543Z,336
2019-02-24T00:54:17.746Z,336
2019-02-24T00:55:24.662Z,336
2019-02-24T00:56:31.304Z,335
2019-02-24T00:57:38.493Z,335
2019-02-24T00:58:45.683Z,335
2019-02-24T00:59:52.060Z,335
2019-02-24T01:00:59.253Z,335
2019-02-24T01:02:06.444Z,335
2019-02-24T01:03:13.631Z,335
2019-02-24T01:04:20.582Z,335
2019-02-24T01:05:27.239Z,335
2019-02-24T01:06:34.426Z,335
2019-02-24T01:07:41.347Z,335
2019-02-24T01:08:48.268Z,335
2019-02-24T01:09:55.184Z,335
2019-02-24T01:11:02.102Z,334
2019-02-24T01:12:09.021Z,334
2019-02-24T01:13:15.937Z,335
2019-02-24T01:14:23.126Z,335
2019-02-24T01:15:30.042Z,335
2019-02-24T01:16:37.233Z,335
2019-02-24T01:17:44.421Z,334
2019-02-24T01:18:51.617Z,335
2019-02-24T01:19:58.535Z,335
2019-02-24T01:21:05.465Z,336
2019-02-24T01:22:12.655Z,335
2019-02-24T01:23:19.847Z,334
2019-02-24T01:24:27.246Z,335
2019-02-24T01:25:34.434Z,334
2019-02-24T01:26:41.654Z,334
2019-02-24T01:27:48.844Z,335
2019-02-24T01:28:56.038Z,335
2019-02-24T01:30:02.953Z,335
2019-02-24T01:31:09.877Z,335
2019-02-24T01:32:16.799Z,335
2019-02-24T01:33:23.987Z,334
2019-02-24T01:34:31.174Z,334
2019-02-24T01:35:38.368Z,334
2019-02-24T01:36:45.280Z,335
2019-02-24T01:37:52.471Z,334
2019-02-24T01:38:59.662Z,335
2019-02-24T01:40:06.852Z,335
2019-02-24T01:41:14.044Z,335
2019-02-24T01:42:20.953Z,335
2019-02-24T01:43:28.145Z,335
2019-02-24T01:44:35.335Z,334
2019-02-24T01:45:42.532Z,334
2019-02-24T01:46:49.450Z,334
2019-02-24T01:47:56.367Z,334
2019-02-24T01:49:03.559Z,334
2019-02-24T01:50:10.749Z,334
2019-02-24T01:51:17.942Z,333
2019-02-24T01:52:25.143Z,333
2019-02-24T01:53:32.333Z,333
2019-02-24T01:54:39.252Z,333
2019-02-24T01:55:46.446Z,334
2019-02-24T01:56:53.373Z,334
2019-02-24T01:58:00.555Z,334
2019-02-24T01:59:07.488Z,335
2019-02-24T02:00:14.681Z,334
2019-02-24T02:01:21.872Z,335
2019-02-24T02:02:29.064Z,335
2019-02-24T02:03:36.254Z,335
2019-02-24T02:04:43.449Z,334
2019-02-24T02:05:50.381Z,334
2019-02-24T02:06:57.298Z,334
2019-02-24T02:08:04.493Z,334
2019-02-24T02:09:11.681Z,334
2019-02-24T02:10:18.875Z,335
2019-02-24T02:11:26.072Z,334
2019-02-24T02:12:33.265Z,334
2019-02-24T02:13:40.449Z,334
2019-02-24T02:14:47.095Z,334
2019-02-24T02:15:54.302Z,334
2019-02-24T02:17:01.490Z,334
2019-02-24T02:18:08.906Z,334
2019-02-24T02:19:16.076Z,334
2019-02-24T02:20:22.720Z,334
2019-02-24T02:21:29.905Z,334
2019-02-24T02:22:36.814Z,334
2019-02-24T02:23:44.013Z,334
2019-02-24T02:24:51.200Z,334
2019-02-24T02:25:58.391Z,334
2019-02-24T02:27:05.043Z,335
2019-02-24T02:28:12.235Z,335
2019-02-24T02:29:19.433Z,334
2019-02-24T02:30:26.628Z,334
2019-02-24T02:31:33.825Z,334
2019-02-24T02:32:41.013Z,333
2019-02-24T02:33:48.210Z,335
2019-02-24T02:34:55.400Z,335
2019-02-24T02:36:02.320Z,335
2019-02-24T02:37:09.514Z,335
2019-02-24T02:38:16.182Z,335
2019-02-24T02:39:23.371Z,334
2019-02-24T02:40:30.555Z,335
2019-02-24T02:41:39.813Z,335
2019-02-24T02:42:47.004Z,334
2019-02-24T02:43:54.193Z,335
2019-02-24T02:45:01.383Z,335
2019-02-24T02:46:08.576Z,335
2019-02-24T02:47:15.759Z,335
2019-02-24T02:48:22.953Z,335
2019-02-24T02:49:29.873Z,336
2019-02-24T02:50:37.062Z,336
2019-02-24T02:51:44.247Z,336
2019-02-24T02:52:51.441Z,335
2019-02-24T02:53:58.637Z,335
2019-02-24T02:55:05.827Z,336
2019-02-24T02:56:14.177Z,336
2019-02-24T02:57:21.374Z,336
2019-02-24T02:58:28.559Z,336
2019-02-24T02:59:35.471Z,336
2019-02-24T03:00:42.673Z,336
2019-02-24T03:01:49.857Z,336
2019-02-24T03:02:56.246Z,336
2019-02-24T03:04:03.165Z,336
2019-02-24T03:05:10.354Z,336
2019-02-24T03:06:17.542Z,335
2019-02-24T03:07:24.735Z,335
2019-02-24T03:08:31.930Z,335
2019-02-24T03:09:38.570Z,336
2019-02-24T03:10:45.764Z,335
2019-02-24T03:11:52.957Z,335
2019-02-24T03:13:00.145Z,335
2019-02-24T03:14:07.337Z,334
2019-02-24T03:15:14.250Z,334
2019-02-24T03:16:23.626Z,334
2019-02-24T03:17:30.812Z,335
2019-02-24T03:18:37.727Z,335
2019-02-24T03:19:44.916Z,335
2019-02-24T03:20:52.103Z,335
2019-02-24T03:21:59.293Z,335
2019-02-24T03:23:06.490Z,334
2019-02-24T03:24:13.679Z,334
2019-02-24T03:25:20.867Z,335
2019-02-24T03:26:42.722Z,335
2019-02-24T03:27:49.907Z,335
2019-02-24T03:29:05.137Z,335
2019-02-24T03:30:12.335Z,334
2019-02-24T03:31:19.539Z,335
2019-02-24T03:32:26.735Z,335
2019-02-24T03:33:33.924Z,335
2019-02-24T03:34:40.836Z,335
2019-02-24T03:35:48.036Z,335
2019-02-24T03:36:55.220Z,335
2019-02-24T03:38:02.184Z,334
2019-02-24T03:39:09.361Z,334
2019-02-24T03:40:16.279Z,335
2019-02-24T03:41:23.199Z,334
2019-02-24T03:42:30.391Z,335
2019-02-24T03:43:37.589Z,335
2019-02-24T03:44:44.779Z,335
2019-02-24T03:45:51.971Z,336
2019-02-24T03:46:59.156Z,335
2019-02-24T03:48:06.081Z,336
2019-02-24T03:49:13.277Z,336
2019-02-24T03:50:20.201Z,336
2019-02-24T03:51:27.392Z,336
2019-02-24T03:52:34.588Z,336
2019-02-24T03:53:41.505Z,336
2019-02-24T03:54:48.692Z,337
2019-02-24T03:55:57.851Z,336
2019-02-24T03:57:05.039Z,336
2019-02-24T03:58:12.231Z,336
2019-02-24T03:59:19.152Z,336
2019-02-24T04:00:26.338Z,335
2019-02-24T04:01:33.536Z,335
2019-02-24T04:02:40.731Z,335
2019-02-24T04:03:47.935Z,335
2019-02-24T04:04:54.845Z,336
2019-02-24T04:06:02.246Z,336
2019-02-24T04:07:09.438Z,336
2019-02-24T04:08:16.086Z,336
2019-02-24T04:09:23.280Z,336
2019-02-24T04:10:30.187Z,336
2019-02-24T04:11:37.384Z,336
2019-02-24T04:12:44.580Z,336
2019-02-24T04:13:51.779Z,336
2019-02-24T04:14:58.970Z,335
2019-02-24T04:16:05.893Z,336
2019-02-24T04:17:13.081Z,336
2019-02-24T04:18:19.998Z,335
2019-02-24T04:19:27.184Z,335
2019-02-24T04:20:34.384Z,336
2019-02-24T04:21:41.571Z,335
2019-02-24T04:22:48.761Z,336
2019-02-24T04:23:55.957Z,336
2019-02-24T04:25:03.154Z,336
2019-02-24T04:26:10.350Z,336
2019-02-24T04:27:17.539Z,337
2019-02-24T04:28:24.727Z,336
2019-02-24T04:29:31.925Z,336
2019-02-24T04:30:39.113Z,336
2019-02-24T04:31:46.030Z,336
2019-02-24T04:32:53.223Z,336
2019-02-24T04:34:00.232Z,336
2019-02-24T04:35:07.440Z,336
2019-02-24T04:36:14.634Z,336
2019-02-24T04:37:21.557Z,336
2019-02-24T04:38:28.478Z,336
2019-02-24T04:39:35.659Z,336
2019-02-24T04:40:42.576Z,336
2019-02-24T04:41:49.770Z,336
2019-02-24T04:42:56.964Z,335
2019-02-24T04:44:04.151Z,335
2019-02-24T04:45:11.342Z,335
2019-02-24T04:46:18.538Z,335
2019-02-24T04:47:25.728Z,335
2019-02-24T04:48:32.913Z,334
2019-02-24T04:49:40.102Z,335
2019-02-24T04:50:47.017Z,335
2019-02-24T04:51:54.206Z,335
2019-02-24T04:53:01.395Z,335
2019-02-24T04:54:08.692Z,335
2019-02-24T04:55:15.882Z,334
2019-02-24T04:56:22.821Z,334
2019-02-24T04:57:29.737Z,334
2019-02-24T04:58:36.926Z,335
2019-02-24T04:59:44.117Z,335
2019-02-24T05:00:51.031Z,336
2019-02-24T05:01:58.218Z,336
2019-02-24T05:03:05.143Z,335
2019-02-24T05:04:12.329Z,336
2019-02-24T05:05:19.307Z,336
2019-02-24T05:06:26.500Z,336
2019-02-24T05:07:33.752Z,336
2019-02-24T05:08:40.945Z,336
2019-02-24T05:09:48.143Z,336
2019-02-24T05:10:55.060Z,337
2019-02-24T05:12:02.252Z,336
2019-02-24T05:13:09.176Z,336
2019-02-24T05:14:16.357Z,336
2019-02-24T05:15:23.547Z,336
2019-02-24T05:16:30.733Z,336
2019-02-24T05:17:39.753Z,336
2019-02-24T05:18:46.944Z,336
2019-02-24T05:19:53.863Z,336
2019-02-24T05:21:01.050Z,336
2019-02-24T05:22:08.256Z,336
2019-02-24T05:23:15.444Z,336
2019-02-24T05:24:22.365Z,336
2019-02-24T05:25:29.553Z,337
2019-02-24T05:26:36.740Z,337
2019-02-24T05:27:43.385Z,337
2019-02-24T05:28:50.303Z,336
2019-02-24T05:29:57.491Z,337
2019-02-24T05:31:04.675Z,336
2019-02-24T05:32:11.871Z,336
2019-02-24T05:33:19.057Z,336
2019-02-24T05:34:25.978Z,336
2019-02-24T05:35:32.900Z,336
2019-02-24T05:36:40.091Z,336
2019-02-24T05:37:47.280Z,336
2019-02-24T05:38:54.191Z,336
2019-02-24T05:40:01.389Z,335
2019-02-24T05:41:08.582Z,336
2019-02-24T05:42:15.221Z,337
2019-02-24T05:43:22.144Z,336
2019-02-24T05:44:29.344Z,337
2019-02-24T05:45:36.539Z,337
2019-02-24T05:46:43.722Z,336
2019-02-24T05:47:50.645Z,337
2019-02-24T05:48:57.835Z,336
2019-02-24T05:50:05.025Z,337
2019-02-24T05:51:12.213Z,337
2019-02-24T05:52:19.408Z,336
2019-02-24T05:53:26.050Z,337
2019-02-24T05:54:33.456Z,336
2019-02-24T05:55:40.096Z,336
2019-02-24T05:56:47.282Z,336
2019-02-24T05:57:54.479Z,336
2019-02-24T05:59:01.671Z,337
2019-02-24T06:00:08.595Z,336
2019-02-24T06:01:15.807Z,337
2019-02-24T06:02:22.988Z,337
2019-02-24T06:03:29.917Z,337
2019-02-24T06:04:37.715Z,337
2019-02-24T06:05:44.902Z,336
2019-02-24T06:06:52.086Z,337
2019-02-24T06:07:59.284Z,338
2019-02-24T06:09:06.473Z,337
2019-02-24T06:10:13.392Z,338
2019-02-24T06:11:20.577Z,338
2019-02-24T06:12:27.764Z,338
2019-02-24T06:13:35.017Z,337
2019-02-24T06:14:42.199Z,337
2019-02-24T06:15:49.383Z,337
2019-02-24T06:16:56.299Z,337
2019-02-24T06:18:03.224Z,338
2019-02-24T06:19:10.416Z,338
2019-02-24T06:20:17.604Z,338
2019-02-24T06:21:24.551Z,338
2019-02-24T06:22:31.747Z,337
2019-02-24T06:23:38.948Z,337
2019-02-24T06:24:46.166Z,337
2019-02-24T06:25:53.082Z,337
2019-02-24T06:27:00.011Z,337
2019-02-24T06:28:07.211Z,337
2019-02-24T06:29:14.401Z,338
2019-02-24T06:30:21.314Z,338
2019-02-24T06:31:28.230Z,337
2019-02-24T06:32:35.425Z,337
2019-02-24T06:33:42.616Z,337
2019-02-24T06:34:49.809Z,337
2019-02-24T06:35:56.997Z,337
2019-02-24T06:37:04.188Z,336
2019-02-24T06:38:11.381Z,336
2019-02-24T06:39:18.293Z,336
2019-02-24T06:40:25.481Z,337
2019-02-24T06:41:32.675Z,336
2019-02-24T06:42:39.867Z,336
2019-02-24T06:43:46.779Z,336
2019-02-24T06:44:53.970Z,336
2019-02-24T06:46:00.883Z,336
2019-02-24T06:47:08.076Z,336
2019-02-24T06:48:15.322Z,335
2019-02-24T06:49:22.235Z,335
2019-02-24T06:50:36.352Z,334
2019-02-24T06:51:43.274Z,334
2019-02-24T06:52:50.461Z,333
2019-02-24T06:53:57.652Z,333
2019-02-24T06:55:04.848Z,332
2019-02-24T06:56:12.042Z,333
2019-02-24T06:57:19.223Z,332
2019-02-24T06:58:26.411Z,331
2019-02-24T06:59:33.600Z,331
2019-02-24T07:00:40.786Z,331
2019-02-24T07:01:47.980Z,331
2019-02-24T07:02:55.175Z,331
2019-02-24T07:04:02.367Z,331
2019-02-24T07:05:09.562Z,330
2019-02-24T07:06:16.755Z,330
2019-02-24T07:07:23.671Z,329
2019-02-24T07:08:30.860Z,329
2019-02-24T07:09:38.047Z,329
2019-02-24T07:10:45.250Z,329
2019-02-24T07:11:52.174Z,328
2019-02-24T07:12:59.365Z,329
2019-02-24T07:14:06.556Z,329
2019-02-24T07:15:13.750Z,329
2019-02-24T07:16:20.943Z,329
2019-02-24T07:17:27.857Z,328
2019-02-24T07:18:35.044Z,328
2019-02-24T07:19:41.975Z,328
2019-02-24T07:20:49.171Z,328
2019-02-24T07:21:56.362Z,328
2019-02-24T07:23:03.557Z,327
2019-02-24T07:24:10.747Z,327
2019-02-24T07:25:17.391Z,327
2019-02-24T07:26:24.314Z,327
2019-02-24T07:27:31.513Z,327
2019-02-24T07:28:38.706Z,326
2019-02-24T07:29:45.908Z,326
2019-02-24T07:30:53.100Z,325
2019-02-24T07:32:00.303Z,325
2019-02-24T07:33:07.498Z,325
2019-02-24T07:34:14.687Z,325
2019-02-24T07:35:21.638Z,324
2019-02-24T07:36:28.820Z,324
2019-02-24T07:37:35.746Z,323
2019-02-24T07:38:42.944Z,324
2019-02-24T07:39:50.138Z,323
2019-02-24T07:40:57.329Z,323
2019-02-24T07:42:04.017Z,323
2019-02-24T07:43:11.214Z,323
2019-02-24T07:44:18.416Z,322
2019-02-24T07:45:25.612Z,322
2019-02-24T07:46:32.803Z,321
2019-02-24T07:47:39.994Z,322
2019-02-24T07:48:47.184Z,321
2019-02-24T07:49:54.101Z,321
2019-02-24T07:51:01.017Z,321
2019-02-24T07:52:08.210Z,320
2019-02-24T07:53:15.399Z,320
2019-02-24T07:54:22.321Z,320
2019-02-24T07:55:29.512Z,319
2019-02-24T07:56:38.348Z,319
2019-02-24T07:57:45.540Z,319
2019-02-24T07:58:52.460Z,320
2019-02-24T07:59:59.648Z,320
2019-02-24T08:01:06.983Z,319
2019-02-24T08:02:14.190Z,318
2019-02-24T08:03:21.380Z,319
2019-02-24T08:04:28.301Z,319
2019-02-24T08:05:35.495Z,319
2019-02-24T08:06:42.716Z,318
2019-02-24T08:07:49.635Z,318
2019-02-24T08:08:56.562Z,318
2019-02-24T08:10:03.753Z,318
2019-02-24T08:11:10.672Z,318
2019-02-24T08:12:17.866Z,317
2019-02-24T08:13:25.062Z,317
2019-02-24T08:14:32.258Z,316
2019-02-24T08:15:39.460Z,316
2019-02-24T08:16:46.655Z,316
2019-02-24T08:17:53.846Z,316
2019-02-24T08:19:01.034Z,317
2019-02-24T08:20:08.230Z,316
2019-02-24T08:21:15.416Z,316
2019-02-24T08:22:22.610Z,316
2019-02-24T08:23:29.818Z,315
2019-02-24T08:24:37.009Z,314
2019-02-24T08:25:43.930Z,314
2019-02-24T08:26:51.141Z,315
2019-02-24T08:27:58.336Z,315
2019-02-24T08:29:05.523Z,315
2019-02-24T08:30:12.727Z,315
2019-02-24T08:31:19.917Z,314
2019-02-24T08:32:27.110Z,315
2019-02-24T08:33:34.305Z,314
2019-02-24T08:34:41.500Z,313
2019-02-24T08:35:48.423Z,313
2019-02-24T08:36:55.613Z,312
2019-02-24T08:38:02.804Z,313
2019-02-24T08:39:09.728Z,312
2019-02-24T08:40:16.938Z,312
2019-02-24T08:41:24.128Z,312
2019-02-24T08:42:31.069Z,311
2019-02-24T08:43:38.304Z,311
2019-02-24T08:44:45.511Z,310
2019-02-24T08:45:52.152Z,309
2019-02-24T08:46:59.344Z,309
2019-02-24T08:48:06.543Z,309
2019-02-24T08:49:13.465Z,309
2019-02-24T08:50:20.389Z,309
2019-02-24T08:51:27.575Z,308
2019-02-24T08:52:34.773Z,309
2019-02-24T08:53:41.976Z,309
2019-02-24T08:54:49.167Z,309
2019-02-24T08:55:56.468Z,309
2019-02-24T08:57:03.673Z,309
2019-02-24T08:58:10.866Z,309
2019-02-24T08:59:17.836Z,308
2019-02-24T09:00:25.033Z,307
2019-02-24T09:01:31.962Z,307
2019-02-24T09:02:39.170Z,306
2019-02-24T09:03:46.370Z,306
2019-02-24T09:04:53.574Z,306
2019-02-24T09:06:00.775Z,305
2019-02-24T09:07:09.587Z,305
2019-02-24T09:08:16.790Z,304
2019-02-24T09:09:23.444Z,304
2019-02-24T09:10:30.645Z,305
2019-02-24T09:11:37.577Z,305
2019-02-24T09:12:44.500Z,306
2019-02-24T09:13:51.703Z,306
2019-02-24T09:14:58.962Z,304
2019-02-24T09:16:06.165Z,304
2019-02-24T09:17:13.356Z,303
2019-02-24T09:18:20.556Z,303
2019-02-24T09:19:27.480Z,303
2019-02-24T09:20:34.693Z,303
2019-02-24T09:21:41.886Z,303
2019-02-24T09:22:49.085Z,302
2019-02-24T09:23:56.002Z,302
2019-02-24T09:25:04.409Z,302
2019-02-24T09:26:11.348Z,301
2019-02-24T09:27:18.579Z,301
2019-02-24T09:28:25.781Z,301
2019-02-24T09:29:32.981Z,301
2019-02-24T09:30:42.173Z,301
2019-02-24T09:31:49.370Z,300
2019-02-24T09:32:56.577Z,299
2019-02-24T09:34:03.775Z,299
2019-02-24T09:35:10.979Z,299
2019-02-24T09:36:18.177Z,300
2019-02-24T09:37:25.104Z,300
2019-02-24T09:38:32.302Z,301
2019-02-24T09:39:39.508Z,300
2019-02-24T09:40:46.717Z,301
2019-02-24T09:41:53.924Z,300
2019-02-24T09:43:00.900Z,300
2019-02-24T09:44:08.094Z,299
2019-02-24T09:45:15.295Z,300
2019-02-24T09:46:22.239Z,300
2019-02-24T09:47:29.444Z,299
2019-02-24T09:48:36.654Z,301
2019-02-24T09:49:43.880Z,300
2019-02-24T09:50:51.080Z,300
2019-02-24T09:51:58.282Z,301
2019-02-24T09:53:05.211Z,301
2019-02-24T09:54:12.409Z,301
2019-02-24T09:55:19.604Z,300
2019-02-24T09:56:26.801Z,299
2019-02-24T09:57:34.004Z,299
2019-02-24T09:58:41.199Z,299
2019-02-24T09:59:48.396Z,298
2019-02-24T10:00:55.335Z,297
2019-02-24T10:02:02.264Z,297
2019-02-24T10:03:09.485Z,297
2019-02-24T10:04:16.679Z,298
2019-02-24T10:05:23.892Z,298
2019-02-24T10:06:31.085Z,298
2019-02-24T10:07:38.280Z,297
2019-02-24T10:08:45.229Z,297
2019-02-24T10:09:52.455Z,295
2019-02-24T10:10:59.661Z,294
2019-02-24T10:12:06.860Z,294
2019-02-24T10:13:14.055Z,294
2019-02-24T10:14:21.252Z,295
2019-02-24T10:15:28.457Z,294
2019-02-24T10:16:35.652Z,294
2019-02-24T10:17:42.897Z,294
2019-02-24T10:18:50.088Z,294
2019-02-24T10:19:57.017Z,294
2019-02-24T10:21:03.957Z,293
2019-02-24T10:22:10.917Z,293
2019-02-24T10:23:17.868Z,292
2019-02-24T10:24:25.068Z,292
2019-02-24T10:25:32.267Z,293
2019-02-24T10:26:38.919Z,294
2019-02-24T10:27:45.854Z,293
2019-02-24T10:28:53.055Z,292
2019-02-24T10:30:00.340Z,292
2019-02-24T10:31:07.271Z,290
2019-02-24T10:32:14.465Z,289
2019-02-24T10:33:21.676Z,288
2019-02-24T10:34:28.894Z,290
2019-02-24T10:35:36.107Z,288
2019-02-24T10:36:43.316Z,287
2019-02-24T10:37:50.513Z,286
2019-02-24T10:38:57.450Z,284
2019-02-24T10:40:04.657Z,282
2019-02-24T10:41:11.862Z,282
2019-02-24T10:42:18.788Z,281
2019-02-24T10:43:25.994Z,280
2019-02-24T10:44:32.924Z,278
2019-02-24T10:45:39.849Z,279
2019-02-24T10:46:47.055Z,278
2019-02-24T10:47:54.258Z,277
2019-02-24T10:49:04.552Z,275
2019-02-24T10:50:11.474Z,274
2019-02-24T10:51:18.674Z,274
2019-02-24T10:52:25.877Z,275
2019-02-24T10:53:32.803Z,275
2019-02-24T10:54:39.734Z,272
2019-02-24T10:55:46.936Z,271
2019-02-24T10:56:53.862Z,273
2019-02-24T10:58:00.794Z,275
2019-02-24T10:59:07.999Z,276
2019-02-24T11:00:15.213Z,274
2019-02-24T11:01:30.583Z,271
2019-02-24T11:02:37.515Z,268
2019-02-24T11:03:44.720Z,274
2019-02-24T11:04:51.661Z,275
2019-02-24T11:05:58.585Z,275
2019-02-24T11:07:05.517Z,274
2019-02-24T11:08:12.725Z,273
2019-02-24T11:09:19.921Z,270
2019-02-24T11:10:27.117Z,269
2019-02-24T11:11:34.036Z,266
2019-02-24T11:12:41.237Z,266
2019-02-24T11:13:48.433Z,268
2019-02-24T11:14:55.360Z,269
2019-02-24T11:16:02.569Z,271
2019-02-24T11:17:09.767Z,274
2019-02-24T11:18:16.976Z,273
2019-02-24T11:19:24.184Z,272
2019-02-24T11:20:31.387Z,271
2019-02-24T11:21:38.041Z,271
2019-02-24T11:22:45.259Z,270
2019-02-24T11:23:52.188Z,268
2019-02-24T11:24:58.846Z,268
2019-02-24T11:26:06.047Z,268
2019-02-24T11:27:12.706Z,267
2019-02-24T11:28:19.637Z,268
2019-02-24T11:29:26.838Z,268
2019-02-24T11:30:34.041Z,268
2019-02-24T11:31:40.964Z,269
2019-02-24T11:32:48.167Z,268
2019-02-24T11:33:55.371Z,267
2019-02-24T11:35:02.578Z,268
2019-02-24T11:36:09.778Z,271
2019-02-24T11:37:16.984Z,268
2019-02-24T11:38:24.187Z,267
2019-02-24T11:39:31.118Z,268
2019-02-24T11:40:38.318Z,266
2019-02-24T11:41:45.521Z,263
2019-02-24T11:42:52.721Z,260
2019-02-24T11:43:59.643Z,258
2019-02-24T11:45:06.850Z,255
2019-02-24T11:46:13.494Z,253
2019-02-24T11:47:20.706Z,254
2019-02-24T11:48:27.903Z,256
2019-02-24T11:49:35.112Z,260
2019-02-24T11:50:42.314Z,259
2019-02-24T11:51:49.247Z,258
2019-02-24T11:52:56.455Z,261
2019-02-24T11:54:03.656Z,260
2019-02-24T11:55:10.863Z,262
2019-02-24T11:56:20.110Z,261
2019-02-24T11:57:27.313Z,259
2019-02-24T11:58:34.524Z,258
2019-02-24T11:59:41.453Z,260
2019-02-24T12:00:48.663Z,263
2019-02-24T12:01:55.865Z,264
2019-02-24T12:03:03.066Z,263
2019-02-24T12:04:09.993Z,261
2019-02-24T12:05:17.200Z,259
2019-02-24T12:06:24.405Z,259
2019-02-24T12:07:31.627Z,257
2019-02-24T12:08:38.841Z,254
2019-02-24T12:09:45.773Z,251
2019-02-24T12:10:52.983Z,254
2019-02-24T12:12:00.186Z,256
2019-02-24T12:13:07.387Z,260
2019-02-24T12:14:14.595Z,262
2019-02-24T12:15:21.804Z,264
2019-02-24T12:16:29.008Z,262
2019-02-24T12:17:36.213Z,262
2019-02-24T12:18:43.424Z,264
2019-02-24T12:19:50.352Z,260
2019-02-24T12:20:57.554Z,260
2019-02-24T12:22:04.758Z,255
2019-02-24T12:23:12.004Z,250
2019-02-24T12:24:19.201Z,248
2019-02-24T12:25:26.401Z,247
2019-02-24T12:26:35.139Z,249
2019-02-24T12:27:42.422Z,248
2019-02-24T12:28:49.648Z,247
2019-02-24T12:29:56.871Z,245
2019-02-24T12:31:04.064Z,249
2019-02-24T12:32:11.324Z,251
2019-02-24T12:33:18.529Z,254
2019-02-24T12:34:25.739Z,257
2019-02-24T12:35:32.944Z,255
2019-02-24T12:36:40.153Z,250
2019-02-24T12:37:47.374Z,249
2019-02-24T12:38:54.561Z,249
2019-02-24T12:40:01.781Z,245
2019-02-24T12:41:08.433Z,244
2019-02-24T12:42:15.371Z,243
2019-02-24T12:43:22.575Z,248
2019-02-24T12:44:29.778Z,245
2019-02-24T12:45:36.714Z,245
2019-02-24T12:46:43.913Z,247
2019-02-24T12:47:51.121Z,248
2019-02-24T12:48:58.047Z,248
2019-02-24T12:50:05.253Z,245
2019-02-24T12:51:12.177Z,244
2019-02-24T12:52:20.808Z,243
2019-02-24T12:53:28.604Z,242
2019-02-24T12:54:35.827Z,242
2019-02-24T12:55:43.032Z,248
2019-02-24T12:56:50.240Z,250
2019-02-24T12:57:57.454Z,253
2019-02-24T12:59:04.650Z,254
2019-02-24T13:00:11.586Z,249
2019-02-24T13:01:18.783Z,251
2019-02-24T13:02:25.983Z,252
2019-02-24T13:03:33.189Z,253
2019-02-24T13:04:40.426Z,251
2019-02-24T13:05:47.630Z,249
2019-02-24T13:06:54.557Z,254
2019-02-24T13:08:01.759Z,253
2019-02-24T13:09:08.155Z,253
2019-02-24T13:10:15.388Z,250
2019-02-24T13:11:22.571Z,247
2019-02-24T13:12:29.776Z,242
2019-02-24T13:13:36.986Z,245
2019-02-24T13:14:44.185Z,249
2019-02-24T13:15:50.848Z,250
2019-02-24T13:16:58.052Z,252
2019-02-24T13:18:05.264Z,253
2019-02-24T13:19:12.191Z,255
2019-02-24T13:20:19.120Z,252
2019-02-24T13:21:26.327Z,253
2019-02-24T13:22:33.534Z,252
2019-02-24T13:23:40.736Z,249
2019-02-24T13:24:47.663Z,251
2019-02-24T13:25:54.594Z,251
2019-02-24T13:27:01.800Z,250
2019-02-24T13:28:09.023Z,247
2019-02-24T13:29:16.229Z,251
2019-02-24T13:30:23.436Z,249
2019-02-24T13:31:30.647Z,244
2019-02-24T13:32:37.574Z,245
2019-02-24T13:33:44.788Z,241
2019-02-24T13:34:51.722Z,246
2019-02-24T13:35:58.654Z,248
2019-02-24T13:37:05.862Z,244
2019-02-24T13:38:13.074Z,249
2019-02-24T13:39:20.275Z,252
2019-02-24T13:40:27.477Z,251
2019-02-24T13:41:34.686Z,249
2019-02-24T13:42:41.623Z,246
2019-02-24T13:43:48.547Z,245
2019-02-24T13:44:55.757Z,244
2019-02-24T13:46:02.690Z,243
2019-02-24T13:47:09.622Z,240
2019-02-24T13:48:16.546Z,241
2019-02-24T13:49:23.752Z,239
2019-02-24T13:50:30.961Z,240
2019-02-24T13:51:37.912Z,241
2019-02-24T13:52:44.855Z,240
2019-02-24T13:53:52.052Z,239
2019-02-24T13:54:59.255Z,241
2019-02-24T13:56:06.187Z,243
2019-02-24T13:57:13.397Z,247
2019-02-24T13:58:20.610Z,245
2019-02-24T13:59:27.815Z,244
2019-02-24T14:00:34.743Z,243
2019-02-24T14:01:41.954Z,245
2019-02-24T14:02:49.156Z,245
2019-02-24T14:03:56.096Z,244
2019-02-24T14:05:03.033Z,248
2019-02-24T14:06:10.243Z,248
2019-02-24T14:07:17.465Z,250
2019-02-24T14:08:24.648Z,252
2019-02-24T14:09:31.858Z,252
2019-02-24T14:10:39.070Z,249
2019-02-24T14:11:46.006Z,247
2019-02-24T14:12:53.217Z,253
2019-02-24T14:14:00.424Z,254
2019-02-24T14:15:07.375Z,250
2019-02-24T14:16:14.591Z,249
2019-02-24T14:17:21.799Z,246
2019-02-24T14:18:29.004Z,251
2019-02-24T14:19:35.935Z,251
2019-02-24T14:20:43.142Z,253
2019-02-24T14:21:50.343Z,254
2019-02-24T14:22:57.556Z,255
2019-02-24T14:24:04.200Z,255
2019-02-24T14:25:11.406Z,252
2019-02-24T14:26:20.731Z,250
2019-02-24T14:27:27.934Z,252
2019-02-24T14:28:35.158Z,252
2019-02-24T14:29:42.352Z,249
2019-02-24T14:30:49.278Z,246
2019-02-24T14:31:56.487Z,246
2019-02-24T14:33:03.702Z,252
2019-02-24T14:34:10.910Z,252
2019-02-24T14:35:17.847Z,256
2019-02-24T14:36:25.069Z,257
2019-02-24T14:37:32.008Z,256
2019-02-24T14:38:39.211Z,253
2019-02-24T14:39:46.420Z,253
2019-02-24T14:40:53.624Z,251
2019-02-24T14:42:00.835Z,251
2019-02-24T14:43:07.764Z,254
2019-02-24T14:44:14.975Z,250
2019-02-24T14:45:22.185Z,246
2019-02-24T14:46:29.408Z,244
2019-02-24T14:47:36.613Z,247
2019-02-24T14:48:45.731Z,253
2019-02-24T14:49:52.930Z,256
2019-02-24T14:50:59.860Z,258
2019-02-24T14:52:07.064Z,257
2019-02-24T14:53:14.275Z,253
2019-02-24T14:54:21.209Z,252
2019-02-24T14:55:28.416Z,254
2019-02-24T14:56:35.619Z,256
2019-02-24T14:57:42.830Z,256
2019-02-24T14:58:50.034Z,253
2019-02-24T14:59:56.977Z,250
2019-02-24T15:01:04.181Z,246
2019-02-24T15:02:11.390Z,245
2019-02-24T15:03:18.592Z,244
2019-02-24T15:04:25.799Z,243
2019-02-24T15:05:33.002Z,244
2019-02-24T15:06:40.211Z,246
2019-02-24T15:07:47.418Z,251
2019-02-24T15:08:54.352Z,251
2019-02-24T15:10:01.562Z,251
2019-02-24T15:11:08.771Z,253
2019-02-24T15:12:15.697Z,253
2019-02-24T15:13:22.632Z,252
2019-02-24T15:14:29.842Z,251
2019-02-24T15:15:37.049Z,249
2019-02-24T15:16:43.978Z,250
2019-02-24T15:17:51.188Z,248
2019-02-24T15:18:58.397Z,248
2019-02-24T15:20:05.610Z,248
2019-02-24T15:21:12.818Z,250
2019-02-24T15:22:20.027Z,250
2019-02-24T15:23:26.980Z,248
2019-02-24T15:24:34.184Z,248
2019-02-24T15:25:41.394Z,251